Time;durP1;ratioP1;P1;durP2;ratioP2;P2;SDS_P1;SDS_P2;PMS_P1;PMS_P2;Temp;Humidity;BMP_temperature;BMP_pressure;BME280_temperature;BME280_humidity;BME280_pressure;Samples;Min_cycle;Max_cycle;Signal;HPM_P1;HPM_P2
2022/10/28 06:00:07;;;;;;;;;;;;;;;20.17;59.86;100122.07;1924601;72;20139;-75
2022/10/28 06:03:08;;;;;;;;;;;;;;;20.53;59.36;100111.75;1905687;74;20253;-76
2022/10/28 06:05:53;;;;;;;;;;;;;;;21.35;57.87;100116.90;1909028;74;20342;-77
2022/10/28 06:08:41;;;;;;;;;;;;;;;22.06;56.44;100113.70;1905841;74;20145;-75
2022/10/28 06:11:28;;;;;;;;;;;;;;;22.62;55.22;100102.41;1894485;74;20250;-76
2022/10/28 06:14:16;;;;;;;;;;;;;;;23.09;54.09;100100.17;1909597;74;20181;-75
2022/10/28 06:17:03;;;;;;;;;;;;;;;23.44;53.13;100106.86;1901869;74;20136;-74
2022/10/28 06:19:51;;;;;;;;;;;;;;;23.72;52.17;100106.36;1898820;74;20156;-77
2022/10/28 06:22:38;;;;;;;;;;;;;;;23.95;51.46;100100.51;1898560;74;20126;-76
2022/10/28 06:25:26;;;;;;;;;;;;;;;24.16;50.72;100105.25;1898964;74;20193;-76
2022/10/28 06:28:14;;;;;;;;;;;;;;;24.31;49.95;100102.43;1905384;74;20169;-77
2022/10/28 06:31:02;;;;;;;;;;;;;;;24.47;49.34;100094.92;1900433;74;20185;-78
2022/10/28 06:33:50;;;;;;;;;;;;;;;24.61;48.73;100093.66;1897849;74;20144;-76
2022/10/28 06:36:39;;;;;;;;;;;;;;;24.74;48.26;100101.70;1904928;74;20178;-77
2022/10/28 06:39:26;;;;;;;;;;;;;;;24.83;47.86;100096.77;1909818;74;20217;-77
2022/10/28 06:42:13;;;;;;;;;;;;;;;24.91;47.60;100103.81;1905233;74;20185;-78
2022/10/28 06:45:01;;;;;;;;;;;;;;;24.98;47.36;100105.92;1898679;74;20241;-78
2022/10/28 06:47:48;;;;;;;;;;;;;;;25.02;47.15;100109.89;1902335;74;20165;-77
2022/10/28 06:50:37;;;;;;;;;;;;;;;25.11;46.99;100116.72;1902857;74;20223;-77
2022/10/28 06:53:25;;;;;;;;;;;;;;;25.13;46.84;100115.41;1901329;74;20229;-77
2022/10/28 06:56:12;;;;;;;;;;;;;;;25.14;46.73;100114.85;1898174;74;20200;-78
2022/10/28 06:59:00;;;;;;;;;;;;;;;25.21;46.54;100125.20;1901354;74;20292;-77
2022/10/28 07:01:47;;;;;;;;;;;;;;;25.23;46.51;100126.64;1888920;75;20217;-76
2022/10/28 07:04:35;;;;;;;;;;;;;;;25.27;46.32;100139.41;1885955;75;20186;-77
2022/10/28 07:07:23;;;;;;;;;;;;;;;25.27;46.35;100138.03;1889647;75;20252;-78
2022/10/28 07:10:10;;;;;;;;;;;;;;;25.29;46.30;100141.38;1884356;75;20145;-79
2022/10/28 07:12:58;;;;;;;;;;;;;;;25.28;46.26;100143.81;1891434;75;20209;-77
2022/10/28 07:15:47;;;;;;;;;;;;;;;25.27;46.23;100146.28;1890155;75;20164;-77
2022/10/28 07:18:34;;;;;;;;;;;;;;;25.30;46.09;100146.63;1832478;78;20121;-77
2022/10/28 07:21:27;;;;;;;;;;;;;;;25.32;46.04;100158.22;1832354;78;20929;-77
2022/10/28 07:24:11;;;;;;;;;;;;;;;25.31;46.05;100159.84;1826912;78;20313;-77
2022/10/28 07:27:01;;;;;;;;;;;;;;;25.35;45.93;100161.88;1862598;77;20179;-78
2022/10/28 07:29:50;;;;;;;;;;;;;;;25.36;45.83;100162.73;1852920;76;20123;-78
2022/10/28 10:32:24;;;;;;;;;;;;;;;20.50;58.46;100174.08;1942889;72;20198;-73
2022/10/28 10:35:25;;;;;;;;;;;;;;;20.85;57.89;100167.45;1911432;75;20203;-74
2022/10/28 10:38:14;;;;;;;;;;;;;;;21.73;56.59;100160.26;1904379;75;20240;-72
2022/10/28 10:41:02;;;;;;;;;;;;;;;22.58;55.57;100159.17;1863622;76;20176;-76
2022/10/28 10:43:49;;;;;;;;;;;;;;;23.18;55.10;100155.86;1870938;76;20209;-77
2022/10/28 10:46:37;;;;;;;;;;;;;;;23.68;54.38;100153.15;1832995;78;20189;-76
2022/10/28 10:49:25;;;;;;;;;;;;;;;24.03;53.30;100153.73;1868370;77;20386;-79
2022/10/28 10:52:24;;;;;;;;;;;;;;;24.30;52.07;100147.42;1853961;77;20162;-76
